sensor_id;sensor_type;location;lat;lon;timestamp;P1;durP1;ratioP1;P2;durP2;ratioP2
14858;SDS011;7521;51.700;6.874;2023-07-20T00:02:15;6.97;;;4.67;;
14858;SDS011;7521;51.700;6.874;2023-07-20T00:05:21;8.40;;;4.80;;
14858;SDS011;7521;51.700;6.874;2023-07-20T00:08:29;7.17;;;4.53;;
14858;SDS011;7521;51.700;6.874;2023-07-20T00:11:35;5.73;;;4.57;;
14858;SDS011;7521;51.700;6.874;2023-07-20T00:14:41;6.90;;;4.37;;
14858;SDS011;7521;51.700;6.874;2023-07-20T00:17:46;4.67;;;4.27;;
14858;SDS011;7521;51.700;6.874;2023-07-20T00:20:51;5.90;;;4.28;;
14858;SDS011;7521;51.700;6.874;2023-07-20T00:23:57;6.37;;;4.30;;
14858;SDS011;7521;51.700;6.874;2023-07-20T00:27:02;8.38;;;4.32;;
14858;SDS011;7521;51.700;6.874;2023-07-20T00:30:07;5.27;;;3.80;;
14858;SDS011;7521;51.700;6.874;2023-07-20T00:33:13;6.63;;;4.37;;
14858;SDS011;7521;51.700;6.874;2023-07-20T00:36:18;5.37;;;3.80;;
14858;SDS011;7521;51.700;6.874;2023-07-20T00:39:23;4.30;;;3.88;;
14858;SDS011;7521;51.700;6.874;2023-07-20T00:42:28;7.53;;;4.90;;
14858;SDS011;7521;51.700;6.874;2023-07-20T00:45:34;14.00;;;4.43;;
14858;SDS011;7521;51.700;6.874;2023-07-20T00:48:40;7.77;;;5.10;;
14858;SDS011;7521;51.700;6.874;2023-07-20T00:51:46;8.30;;;5.17;;
14858;SDS011;7521;51.700;6.874;2023-07-20T00:54:51;6.63;;;4.77;;
14858;SDS011;7521;51.700;6.874;2023-07-20T00:57:57;7.37;;;4.67;;
14858;SDS011;7521;51.700;6.874;2023-07-20T01:01:03;5.77;;;4.50;;
14858;SDS011;7521;51.700;6.874;2023-07-20T01:04:08;6.67;;;4.50;;
14858;SDS011;7521;51.700;6.874;2023-07-20T01:10:42;5.83;;;4.77;;
14858;SDS011;7521;51.700;6.874;2023-07-20T01:13:48;6.60;;;4.90;;
14858;SDS011;7521;51.700;6.874;2023-07-20T01:16:54;8.53;;;4.93;;
14858;SDS011;7521;51.700;6.874;2023-07-20T01:19:59;7.27;;;4.97;;
14858;SDS011;7521;51.700;6.874;2023-07-20T01:29:43;6.60;;;5.80;;
14858;SDS011;7521;51.700;6.874;2023-07-20T01:32:51;8.83;;;6.00;;
14858;SDS011;7521;51.700;6.874;2023-07-20T01:35:59;8.93;;;6.10;;
14858;SDS011;7521;51.700;6.874;2023-07-20T01:39:05;7.43;;;6.50;;
14858;SDS011;7521;51.700;6.874;2023-07-20T01:42:11;9.13;;;5.73;;
14858;SDS011;7521;51.700;6.874;2023-07-20T01:45:16;8.50;;;6.60;;
14858;SDS011;7521;51.700;6.874;2023-07-20T01:48:21;7.73;;;6.10;;
14858;SDS011;7521;51.700;6.874;2023-07-20T01:51:27;10.18;;;6.82;;
14858;SDS011;7521;51.700;6.874;2023-07-20T01:54:32;8.98;;;6.50;;
14858;SDS011;7521;51.700;6.874;2023-07-20T01:57:37;9.30;;;6.37;;
14858;SDS011;7521;51.700;6.874;2023-07-20T02:00:42;6.87;;;5.80;;
14858;SDS011;7521;51.700;6.874;2023-07-20T02:03:47;10.85;;;7.40;;
14858;SDS011;7521;51.700;6.874;2023-07-20T02:06:53;9.68;;;6.15;;
14858;SDS011;7521;51.700;6.874;2023-07-20T02:09:58;7.75;;;6.63;;
14858;SDS011;7521;51.700;6.874;2023-07-20T02:13:03;10.30;;;7.60;;
14858;SDS011;7521;51.700;6.874;2023-07-20T02:16:08;10.27;;;6.80;;
14858;SDS011;7521;51.700;6.874;2023-07-20T02:19:14;9.63;;;7.60;;
14858;SDS011;7521;51.700;6.874;2023-07-20T02:22:19;13.00;;;8.03;;
14858;SDS011;7521;51.700;6.874;2023-07-20T02:25:24;10.00;;;7.93;;
14858;SDS011;7521;51.700;6.874;2023-07-20T02:28:29;10.27;;;8.40;;
14858;SDS011;7521;51.700;6.874;2023-07-20T02:31:34;11.70;;;8.27;;
14858;SDS011;7521;51.700;6.874;2023-07-20T02:34:42;10.97;;;8.67;;
14858;SDS011;7521;51.700;6.874;2023-07-20T02:37:47;9.83;;;8.80;;
14858;SDS011;7521;51.700;6.874;2023-07-20T02:40:52;10.80;;;9.67;;
14858;SDS011;7521;51.700;6.874;2023-07-20T02:43:57;14.52;;;10.38;;
14858;SDS011;7521;51.700;6.874;2023-07-20T02:47:03;13.57;;;11.40;;
14858;SDS011;7521;51.700;6.874;2023-07-20T02:50:08;13.33;;;11.03;;
14858;SDS011;7521;51.700;6.874;2023-07-20T02:53:13;12.83;;;10.80;;
14858;SDS011;7521;51.700;6.874;2023-07-20T02:56:18;14.90;;;12.48;;
14858;SDS011;7521;51.700;6.874;2023-07-20T02:59:23;17.23;;;12.10;;
14858;SDS011;7521;51.700;6.874;2023-07-20T03:02:29;12.80;;;11.47;;
14858;SDS011;7521;51.700;6.874;2023-07-20T03:05:35;12.20;;;10.90;;
14858;SDS011;7521;51.700;6.874;2023-07-20T03:08:40;13.77;;;12.20;;
14858;SDS011;7521;51.700;6.874;2023-07-20T03:11:46;13.53;;;11.30;;
14858;SDS011;7521;51.700;6.874;2023-07-20T03:14:51;13.17;;;11.87;;
14858;SDS011;7521;51.700;6.874;2023-07-20T03:17:57;16.97;;;12.63;;
14858;SDS011;7521;51.700;6.874;2023-07-20T03:21:03;16.13;;;13.43;;
14858;SDS011;7521;51.700;6.874;2023-07-20T03:24:08;16.00;;;12.43;;
14858;SDS011;7521;51.700;6.874;2023-07-20T03:27:14;16.52;;;12.98;;
14858;SDS011;7521;51.700;6.874;2023-07-20T03:30:19;15.45;;;13.07;;
14858;SDS011;7521;51.700;6.874;2023-07-20T03:33:28;15.80;;;13.85;;
14858;SDS011;7521;51.700;6.874;2023-07-20T03:36:33;15.83;;;13.10;;
14858;SDS011;7521;51.700;6.874;2023-07-20T03:39:39;13.83;;;12.37;;
14858;SDS011;7521;51.700;6.874;2023-07-20T03:42:44;14.23;;;11.83;;
14858;SDS011;7521;51.700;6.874;2023-07-20T03:45:49;13.23;;;11.13;;
14858;SDS011;7521;51.700;6.874;2023-07-20T03:48:54;14.43;;;11.17;;
14858;SDS011;7521;51.700;6.874;2023-07-20T03:52:00;13.07;;;11.75;;
14858;SDS011;7521;51.700;6.874;2023-07-20T03:55:05;12.30;;;10.93;;
14858;SDS011;7521;51.700;6.874;2023-07-20T03:58:11;11.80;;;10.53;;
14858;SDS011;7521;51.700;6.874;2023-07-20T04:01:16;11.45;;;9.77;;
14858;SDS011;7521;51.700;6.874;2023-07-20T04:04:24;11.50;;;10.00;;
14858;SDS011;7521;51.700;6.874;2023-07-20T04:07:29;10.80;;;9.80;;
14858;SDS011;7521;51.700;6.874;2023-07-20T04:10:34;10.40;;;9.40;;
14858;SDS011;7521;51.700;6.874;2023-07-20T04:13:39;11.80;;;9.87;;
14858;SDS011;7521;51.700;6.874;2023-07-20T04:16:46;9.90;;;8.88;;
14858;SDS011;7521;51.700;6.874;2023-07-20T04:19:51;10.90;;;9.77;;
14858;SDS011;7521;51.700;6.874;2023-07-20T04:22:56;10.02;;;9.02;;
14858;SDS011;7521;51.700;6.874;2023-07-20T04:26:01;10.00;;;8.87;;
14858;SDS011;7521;51.700;6.874;2023-07-20T04:29:07;10.27;;;9.20;;
14858;SDS011;7521;51.700;6.874;2023-07-20T04:32:12;10.45;;;9.45;;
14858;SDS011;7521;51.700;6.874;2023-07-20T04:35:18;10.43;;;8.68;;
14858;SDS011;7521;51.700;6.874;2023-07-20T04:38:23;10.57;;;9.57;;
14858;SDS011;7521;51.700;6.874;2023-07-20T04:41:29;11.93;;;9.60;;
14858;SDS011;7521;51.700;6.874;2023-07-20T04:44:34;11.65;;;10.10;;
14858;SDS011;7521;51.700;6.874;2023-07-20T04:47:39;10.13;;;9.23;;
14858;SDS011;7521;51.700;6.874;2023-07-20T04:50:44;10.50;;;9.45;;
14858;SDS011;7521;51.700;6.874;2023-07-20T04:53:50;13.13;;;9.77;;
14858;SDS011;7521;51.700;6.874;2023-07-20T04:56:55;9.70;;;8.80;;
14858;SDS011;7521;51.700;6.874;2023-07-20T05:00:00;11.73;;;10.52;;
14858;SDS011;7521;51.700;6.874;2023-07-20T05:03:05;10.30;;;9.15;;
14858;SDS011;7521;51.700;6.874;2023-07-20T05:06:10;10.70;;;9.53;;
14858;SDS011;7521;51.700;6.874;2023-07-20T05:09:16;10.97;;;9.97;;
14858;SDS011;7521;51.700;6.874;2023-07-20T05:12:21;12.80;;;11.50;;
14858;SDS011;7521;51.700;6.874;2023-07-20T05:15:26;11.57;;;9.90;;
14858;SDS011;7521;51.700;6.874;2023-07-20T05:18:31;11.57;;;9.50;;
14858;SDS011;7521;51.700;6.874;2023-07-20T05:21:37;9.77;;;8.80;;
14858;SDS011;7521;51.700;6.874;2023-07-20T05:24:42;9.70;;;8.80;;
14858;SDS011;7521;51.700;6.874;2023-07-20T05:27:47;9.47;;;8.47;;
14858;SDS011;7521;51.700;6.874;2023-07-20T05:30:53;9.23;;;8.23;;
14858;SDS011;7521;51.700;6.874;2023-07-20T05:33:58;9.47;;;8.57;;
14858;SDS011;7521;51.700;6.874;2023-07-20T05:37:03;9.75;;;8.75;;
14858;SDS011;7521;51.700;6.874;2023-07-20T05:40:09;9.37;;;8.57;;
14858;SDS011;7521;51.700;6.874;2023-07-20T05:43:16;9.60;;;8.60;;
14858;SDS011;7521;51.700;6.874;2023-07-20T05:46:22;7.97;;;7.17;;
14858;SDS011;7521;51.700;6.874;2023-07-20T05:49:27;7.83;;;7.07;;
14858;SDS011;7521;51.700;6.874;2023-07-20T05:52:32;8.50;;;7.38;;
14858;SDS011;7521;51.700;6.874;2023-07-20T05:55:37;8.57;;;7.78;;
14858;SDS011;7521;51.700;6.874;2023-07-20T05:58:44;7.70;;;7.00;;
14858;SDS011;7521;51.700;6.874;2023-07-20T06:01:49;6.50;;;5.87;;
14858;SDS011;7521;51.700;6.874;2023-07-20T06:04:54;6.77;;;6.07;;
14858;SDS011;7521;51.700;6.874;2023-07-20T06:07:59;5.75;;;5.07;;
14858;SDS011;7521;51.700;6.874;2023-07-20T06:11:05;6.03;;;5.53;;
14858;SDS011;7521;51.700;6.874;2023-07-20T06:14:10;5.47;;;4.97;;
14858;SDS011;7521;51.700;6.874;2023-07-20T06:17:15;6.13;;;4.78;;
14858;SDS011;7521;51.700;6.874;2023-07-20T06:20:21;5.32;;;4.88;;
14858;SDS011;7521;51.700;6.874;2023-07-20T06:23:26;4.80;;;4.40;;
14858;SDS011;7521;51.700;6.874;2023-07-20T06:26:31;5.37;;;4.87;;
14858;SDS011;7521;51.700;6.874;2023-07-20T06:29:43;5.33;;;4.83;;
14858;SDS011;7521;51.700;6.874;2023-07-20T06:32:48;5.70;;;4.32;;
14858;SDS011;7521;51.700;6.874;2023-07-20T06:35:53;4.80;;;4.40;;
14858;SDS011;7521;51.700;6.874;2023-07-20T06:38:58;4.80;;;4.40;;
14858;SDS011;7521;51.700;6.874;2023-07-20T06:42:04;4.63;;;4.23;;
14858;SDS011;7521;51.700;6.874;2023-07-20T06:45:09;4.47;;;4.07;;
14858;SDS011;7521;51.700;6.874;2023-07-20T06:48:14;4.63;;;4.23;;
14858;SDS011;7521;51.700;6.874;2023-07-20T06:51:19;4.97;;;4.43;;
14858;SDS011;7521;51.700;6.874;2023-07-20T06:54:25;5.00;;;4.40;;
14858;SDS011;7521;51.700;6.874;2023-07-20T06:57:30;4.40;;;4.00;;
14858;SDS011;7521;51.700;6.874;2023-07-20T07:00:35;5.20;;;3.67;;
14858;SDS011;7521;51.700;6.874;2023-07-20T07:03:40;5.32;;;3.80;;
14858;SDS011;7521;51.700;6.874;2023-07-20T07:06:45;4.33;;;3.87;;
14858;SDS011;7521;51.700;6.874;2023-07-20T07:09:50;3.38;;;3.10;;
14858;SDS011;7521;51.700;6.874;2023-07-20T07:12:55;2.80;;;2.60;;
14858;SDS011;7521;51.700;6.874;2023-07-20T07:16:01;5.20;;;2.85;;
14858;SDS011;7521;51.700;6.874;2023-07-20T07:19:06;3.20;;;2.90;;
14858;SDS011;7521;51.700;6.874;2023-07-20T07:22:13;2.90;;;2.60;;
14858;SDS011;7521;51.700;6.874;2023-07-20T07:25:18;2.50;;;2.30;;
14858;SDS011;7521;51.700;6.874;2023-07-20T07:28:24;2.37;;;2.03;;
14858;SDS011;7521;51.700;6.874;2023-07-20T07:31:29;1.97;;;1.80;;
14858;SDS011;7521;51.700;6.874;2023-07-20T07:34:35;2.43;;;2.00;;
14858;SDS011;7521;51.700;6.874;2023-07-20T07:37:40;3.67;;;1.80;;
14858;SDS011;7521;51.700;6.874;2023-07-20T07:40:45;2.37;;;1.70;;
14858;SDS011;7521;51.700;6.874;2023-07-20T07:43:51;2.93;;;1.97;;
14858;SDS011;7521;51.700;6.874;2023-07-20T07:46:56;2.17;;;1.58;;
14858;SDS011;7521;51.700;6.874;2023-07-20T07:50:02;1.83;;;1.40;;
14858;SDS011;7521;51.700;6.874;2023-07-20T07:53:07;2.53;;;1.43;;
14858;SDS011;7521;51.700;6.874;2023-07-20T07:56:12;1.67;;;1.50;;
14858;SDS011;7521;51.700;6.874;2023-07-20T07:59:17;1.77;;;1.38;;
14858;SDS011;7521;51.700;6.874;2023-07-20T08:02:23;2.40;;;1.20;;
14858;SDS011;7521;51.700;6.874;2023-07-20T08:05:28;1.20;;;1.10;;
14858;SDS011;7521;51.700;6.874;2023-07-20T08:08:33;1.58;;;1.30;;
14858;SDS011;7521;51.700;6.874;2023-07-20T08:11:39;1.50;;;1.17;;
14858;SDS011;7521;51.700;6.874;2023-07-20T08:14:44;1.40;;;1.00;;
14858;SDS011;7521;51.700;6.874;2023-07-20T08:17:49;2.22;;;1.20;;
14858;SDS011;7521;51.700;6.874;2023-07-20T08:20:56;1.30;;;0.80;;
14858;SDS011;7521;51.700;6.874;2023-07-20T08:24:01;2.92;;;0.82;;
14858;SDS011;7521;51.700;6.874;2023-07-20T08:27:06;1.45;;;1.05;;
14858;SDS011;7521;51.700;6.874;2023-07-20T08:30:12;1.30;;;1.00;;
14858;SDS011;7521;51.700;6.874;2023-07-20T08:33:17;1.25;;;0.90;;
14858;SDS011;7521;51.700;6.874;2023-07-20T08:36:25;1.80;;;1.00;;
14858;SDS011;7521;51.700;6.874;2023-07-20T08:39:31;1.00;;;0.90;;
14858;SDS011;7521;51.700;6.874;2023-07-20T08:42:36;2.97;;;1.10;;
14858;SDS011;7521;51.700;6.874;2023-07-20T08:45:42;1.27;;;1.00;;
14858;SDS011;7521;51.700;6.874;2023-07-20T08:48:49;1.33;;;0.90;;
14858;SDS011;7521;51.700;6.874;2023-07-20T08:51:54;1.00;;;0.93;;
14858;SDS011;7521;51.700;6.874;2023-07-20T08:55:00;1.40;;;0.90;;
14858;SDS011;7521;51.700;6.874;2023-07-20T08:58:08;0.93;;;0.60;;
14858;SDS011;7521;51.700;6.874;2023-07-20T09:01:16;0.77;;;0.60;;
14858;SDS011;7521;51.700;6.874;2023-07-20T09:04:23;0.80;;;0.50;;
14858;SDS011;7521;51.700;6.874;2023-07-20T09:07:28;2.35;;;0.98;;
14858;SDS011;7521;51.700;6.874;2023-07-20T09:10:34;2.97;;;0.60;;
14858;SDS011;7521;51.700;6.874;2023-07-20T09:13:39;1.73;;;0.57;;
14858;SDS011;7521;51.700;6.874;2023-07-20T09:16:48;1.10;;;0.60;;
14858;SDS011;7521;51.700;6.874;2023-07-20T09:19:54;1.37;;;0.60;;
14858;SDS011;7521;51.700;6.874;2023-07-20T09:22:59;0.80;;;0.63;;
14858;SDS011;7521;51.700;6.874;2023-07-20T09:26:14;0.80;;;0.60;;
14858;SDS011;7521;51.700;6.874;2023-07-20T09:29:20;0.87;;;0.40;;
14858;SDS011;7521;51.700;6.874;2023-07-20T09:32:25;0.80;;;0.50;;
14858;SDS011;7521;51.700;6.874;2023-07-20T09:35:31;1.73;;;0.70;;
14858;SDS011;7521;51.700;6.874;2023-07-20T09:38:36;0.93;;;0.32;;
14858;SDS011;7521;51.700;6.874;2023-07-20T09:41:41;0.77;;;0.70;;
14858;SDS011;7521;51.700;6.874;2023-07-20T09:44:49;1.17;;;0.50;;
14858;SDS011;7521;51.700;6.874;2023-07-20T09:48:05;0.90;;;0.73;;
14858;SDS011;7521;51.700;6.874;2023-07-20T09:51:11;0.70;;;0.60;;
14858;SDS011;7521;51.700;6.874;2023-07-20T09:54:16;0.90;;;0.80;;
14858;SDS011;7521;51.700;6.874;2023-07-20T09:57:22;0.67;;;0.57;;
14858;SDS011;7521;51.700;6.874;2023-07-20T10:00:28;1.87;;;0.60;;
14858;SDS011;7521;51.700;6.874;2023-07-20T10:03:33;0.70;;;0.40;;
14858;SDS011;7521;51.700;6.874;2023-07-20T10:06:42;1.63;;;0.93;;
14858;SDS011;7521;51.700;6.874;2023-07-20T10:09:47;0.93;;;0.70;;
14858;SDS011;7521;51.700;6.874;2023-07-20T10:12:53;1.03;;;0.70;;
14858;SDS011;7521;51.700;6.874;2023-07-20T10:15:59;1.10;;;0.70;;
14858;SDS011;7521;51.700;6.874;2023-07-20T10:22:37;3.10;;;0.50;;
14858;SDS011;7521;51.700;6.874;2023-07-20T10:25:43;1.90;;;0.73;;
14858;SDS011;7521;51.700;6.874;2023-07-20T10:28:50;0.87;;;0.47;;
14858;SDS011;7521;51.700;6.874;2023-07-20T10:31:55;1.07;;;0.60;;
14858;SDS011;7521;51.700;6.874;2023-07-20T10:35:01;1.27;;;0.47;;
14858;SDS011;7521;51.700;6.874;2023-07-20T10:38:16;2.93;;;0.80;;
14858;SDS011;7521;51.700;6.874;2023-07-20T10:41:23;0.60;;;0.60;;
14858;SDS011;7521;51.700;6.874;2023-07-20T10:44:32;0.90;;;0.50;;
14858;SDS011;7521;51.700;6.874;2023-07-20T10:47:44;1.47;;;0.53;;
14858;SDS011;7521;51.700;6.874;2023-07-20T10:57:32;0.70;;;0.50;;
14858;SDS011;7521;51.700;6.874;2023-07-20T11:00:38;1.52;;;0.50;;
14858;SDS011;7521;51.700;6.874;2023-07-20T11:04:00;1.70;;;0.50;;
14858;SDS011;7521;51.700;6.874;2023-07-20T11:07:06;0.93;;;0.60;;
14858;SDS011;7521;51.700;6.874;2023-07-20T11:10:14;1.20;;;0.50;;
14858;SDS011;7521;51.700;6.874;2023-07-20T11:13:23;0.70;;;0.40;;
14858;SDS011;7521;51.700;6.874;2023-07-20T11:16:33;1.53;;;0.77;;
14858;SDS011;7521;51.700;6.874;2023-07-20T11:19:39;0.60;;;0.50;;
14858;SDS011;7521;51.700;6.874;2023-07-20T11:22:45;1.53;;;0.50;;
14858;SDS011;7521;51.700;6.874;2023-07-20T11:25:51;0.70;;;0.50;;
14858;SDS011;7521;51.700;6.874;2023-07-20T11:28:56;1.17;;;0.40;;
14858;SDS011;7521;51.700;6.874;2023-07-20T11:32:03;5.50;;;0.67;;
14858;SDS011;7521;51.700;6.874;2023-07-20T11:35:12;1.03;;;0.50;;
14858;SDS011;7521;51.700;6.874;2023-07-20T11:38:17;0.80;;;0.40;;
14858;SDS011;7521;51.700;6.874;2023-07-20T11:41:22;0.83;;;0.77;;
14858;SDS011;7521;51.700;6.874;2023-07-20T11:44:28;0.60;;;0.33;;
14858;SDS011;7521;51.700;6.874;2023-07-20T11:47:33;0.67;;;0.50;;
14858;SDS011;7521;51.700;6.874;2023-07-20T11:50:39;1.33;;;0.60;;
14858;SDS011;7521;51.700;6.874;2023-07-20T11:53:45;0.60;;;0.30;;
14858;SDS011;7521;51.700;6.874;2023-07-20T11:56:54;2.90;;;0.40;;
14858;SDS011;7521;51.700;6.874;2023-07-20T12:00:02;1.57;;;0.57;;
14858;SDS011;7521;51.700;6.874;2023-07-20T12:03:11;0.47;;;0.40;;
14858;SDS011;7521;51.700;6.874;2023-07-20T12:06:17;1.13;;;0.57;;
14858;SDS011;7521;51.700;6.874;2023-07-20T12:09:22;0.70;;;0.27;;
14858;SDS011;7521;51.700;6.874;2023-07-20T12:12:27;0.67;;;0.40;;
14858;SDS011;7521;51.700;6.874;2023-07-20T12:15:33;1.57;;;0.50;;
14858;SDS011;7521;51.700;6.874;2023-07-20T12:18:38;0.93;;;0.60;;
14858;SDS011;7521;51.700;6.874;2023-07-20T12:21:43;0.60;;;0.40;;
14858;SDS011;7521;51.700;6.874;2023-07-20T12:24:52;1.37;;;0.60;;
14858;SDS011;7521;51.700;6.874;2023-07-20T12:27:59;0.50;;;0.50;;
14858;SDS011;7521;51.700;6.874;2023-07-20T12:31:05;1.10;;;0.50;;
14858;SDS011;7521;51.700;6.874;2023-07-20T12:34:11;2.07;;;0.50;;
14858;SDS011;7521;51.700;6.874;2023-07-20T12:37:17;1.10;;;0.53;;
14858;SDS011;7521;51.700;6.874;2023-07-20T12:40:23;0.57;;;0.40;;
14858;SDS011;7521;51.700;6.874;2023-07-20T12:43:28;1.43;;;0.50;;
14858;SDS011;7521;51.700;6.874;2023-07-20T12:46:34;1.70;;;0.63;;
14858;SDS011;7521;51.700;6.874;2023-07-20T12:49:42;1.63;;;0.70;;
14858;SDS011;7521;51.700;6.874;2023-07-20T12:52:50;0.83;;;0.40;;
14858;SDS011;7521;51.700;6.874;2023-07-20T12:55:55;0.63;;;0.43;;
14858;SDS011;7521;51.700;6.874;2023-07-20T12:59:00;0.88;;;0.50;;
14858;SDS011;7521;51.700;6.874;2023-07-20T13:02:07;0.67;;;0.47;;
14858;SDS011;7521;51.700;6.874;2023-07-20T13:05:12;1.10;;;0.50;;
14858;SDS011;7521;51.700;6.874;2023-07-20T13:08:18;0.90;;;0.60;;
14858;SDS011;7521;51.700;6.874;2023-07-20T13:11:24;0.40;;;0.40;;
14858;SDS011;7521;51.700;6.874;2023-07-20T13:14:29;1.13;;;0.57;;
14858;SDS011;7521;51.700;6.874;2023-07-20T13:17:35;1.07;;;0.50;;
14858;SDS011;7521;51.700;6.874;2023-07-20T13:20:41;1.50;;;0.50;;
14858;SDS011;7521;51.700;6.874;2023-07-20T13:23:46;1.55;;;0.50;;
14858;SDS011;7521;51.700;6.874;2023-07-20T13:26:51;0.73;;;0.47;;
14858;SDS011;7521;51.700;6.874;2023-07-20T13:29:57;0.77;;;0.40;;
14858;SDS011;7521;51.700;6.874;2023-07-20T13:33:03;0.83;;;0.60;;
14858;SDS011;7521;51.700;6.874;2023-07-20T13:36:08;0.60;;;0.50;;
14858;SDS011;7521;51.700;6.874;2023-07-20T13:39:13;1.63;;;0.50;;
14858;SDS011;7521;51.700;6.874;2023-07-20T13:42:18;1.98;;;0.70;;
14858;SDS011;7521;51.700;6.874;2023-07-20T13:45:24;0.50;;;0.50;;
14858;SDS011;7521;51.700;6.874;2023-07-20T13:48:29;1.20;;;0.60;;
14858;SDS011;7521;51.700;6.874;2023-07-20T13:51:35;1.27;;;0.57;;
14858;SDS011;7521;51.700;6.874;2023-07-20T13:54:40;1.40;;;0.60;;
14858;SDS011;7521;51.700;6.874;2023-07-20T13:57:46;1.73;;;0.50;;
14858;SDS011;7521;51.700;6.874;2023-07-20T14:00:51;1.00;;;0.60;;
14858;SDS011;7521;51.700;6.874;2023-07-20T14:03:57;2.50;;;0.43;;
14858;SDS011;7521;51.700;6.874;2023-07-20T14:07:02;1.23;;;0.63;;
14858;SDS011;7521;51.700;6.874;2023-07-20T14:10:07;2.07;;;0.77;;
14858;SDS011;7521;51.700;6.874;2023-07-20T14:13:12;2.10;;;0.80;;
14858;SDS011;7521;51.700;6.874;2023-07-20T14:16:17;0.80;;;0.60;;
14858;SDS011;7521;51.700;6.874;2023-07-20T14:19:23;0.80;;;0.60;;
14858;SDS011;7521;51.700;6.874;2023-07-20T14:22:28;0.40;;;0.30;;
14858;SDS011;7521;51.700;6.874;2023-07-20T14:25:33;1.08;;;0.50;;
14858;SDS011;7521;51.700;6.874;2023-07-20T14:28:38;0.60;;;0.40;;
14858;SDS011;7521;51.700;6.874;2023-07-20T14:31:44;1.27;;;0.60;;
14858;SDS011;7521;51.700;6.874;2023-07-20T14:34:49;1.05;;;0.40;;
14858;SDS011;7521;51.700;6.874;2023-07-20T14:37:54;1.40;;;0.57;;
14858;SDS011;7521;51.700;6.874;2023-07-20T14:41:00;1.00;;;0.50;;
14858;SDS011;7521;51.700;6.874;2023-07-20T14:44:05;2.03;;;0.60;;
14858;SDS011;7521;51.700;6.874;2023-07-20T14:47:10;0.93;;;0.63;;
14858;SDS011;7521;51.700;6.874;2023-07-20T14:50:15;1.33;;;0.73;;
14858;SDS011;7521;51.700;6.874;2023-07-20T14:53:20;3.47;;;0.60;;
14858;SDS011;7521;51.700;6.874;2023-07-20T14:56:25;1.10;;;0.37;;
14858;SDS011;7521;51.700;6.874;2023-07-20T14:59:31;3.40;;;0.60;;
14858;SDS011;7521;51.700;6.874;2023-07-20T15:02:37;1.07;;;0.50;;
14858;SDS011;7521;51.700;6.874;2023-07-20T15:05:42;2.47;;;0.40;;
14858;SDS011;7521;51.700;6.874;2023-07-20T15:08:47;1.05;;;0.70;;
14858;SDS011;7521;51.700;6.874;2023-07-20T15:11:52;1.67;;;0.50;;
14858;SDS011;7521;51.700;6.874;2023-07-20T15:15:04;2.28;;;0.60;;
14858;SDS011;7521;51.700;6.874;2023-07-20T15:18:11;1.00;;;0.70;;
14858;SDS011;7521;51.700;6.874;2023-07-20T15:21:16;0.90;;;0.60;;
14858;SDS011;7521;51.700;6.874;2023-07-20T15:24:21;2.83;;;0.50;;
14858;SDS011;7521;51.700;6.874;2023-07-20T15:27:26;0.75;;;0.50;;
14858;SDS011;7521;51.700;6.874;2023-07-20T15:30:31;1.13;;;0.57;;
14858;SDS011;7521;51.700;6.874;2023-07-20T15:33:36;1.20;;;0.70;;
14858;SDS011;7521;51.700;6.874;2023-07-20T15:36:42;1.50;;;0.50;;
14858;SDS011;7521;51.700;6.874;2023-07-20T15:39:50;0.90;;;0.67;;
14858;SDS011;7521;51.700;6.874;2023-07-20T15:42:55;2.20;;;0.73;;
14858;SDS011;7521;51.700;6.874;2023-07-20T15:46:28;0.63;;;0.57;;
14858;SDS011;7521;51.700;6.874;2023-07-20T15:49:26;1.77;;;0.70;;
14858;SDS011;7521;51.700;6.874;2023-07-20T15:52:32;1.43;;;0.60;;
14858;SDS011;7521;51.700;6.874;2023-07-20T15:55:37;1.77;;;0.52;;
14858;SDS011;7521;51.700;6.874;2023-07-20T15:58:42;0.50;;;0.37;;
14858;SDS011;7521;51.700;6.874;2023-07-20T16:01:48;1.43;;;0.70;;
14858;SDS011;7521;51.700;6.874;2023-07-20T16:04:53;0.70;;;0.50;;
14858;SDS011;7521;51.700;6.874;2023-07-20T16:07:58;2.47;;;0.77;;
14858;SDS011;7521;51.700;6.874;2023-07-20T16:11:03;2.30;;;0.63;;
14858;SDS011;7521;51.700;6.874;2023-07-20T16:14:08;1.70;;;0.60;;
14858;SDS011;7521;51.700;6.874;2023-07-20T16:17:13;1.60;;;0.80;;
14858;SDS011;7521;51.700;6.874;2023-07-20T16:20:19;0.75;;;0.60;;
14858;SDS011;7521;51.700;6.874;2023-07-20T16:23:24;0.80;;;0.60;;
14858;SDS011;7521;51.700;6.874;2023-07-20T16:26:29;1.23;;;0.57;;
14858;SDS011;7521;51.700;6.874;2023-07-20T16:29:34;1.53;;;0.93;;
14858;SDS011;7521;51.700;6.874;2023-07-20T16:32:42;1.53;;;0.87;;
14858;SDS011;7521;51.700;6.874;2023-07-20T16:35:48;1.27;;;0.73;;
14858;SDS011;7521;51.700;6.874;2023-07-20T16:38:53;0.85;;;0.60;;
14858;SDS011;7521;51.700;6.874;2023-07-20T16:41:58;2.23;;;0.80;;
14858;SDS011;7521;51.700;6.874;2023-07-20T16:45:03;2.00;;;0.50;;
14858;SDS011;7521;51.700;6.874;2023-07-20T16:48:09;1.30;;;0.77;;
14858;SDS011;7521;51.700;6.874;2023-07-20T16:51:14;1.37;;;0.83;;
14858;SDS011;7521;51.700;6.874;2023-07-20T16:54:19;2.30;;;0.80;;
14858;SDS011;7521;51.700;6.874;2023-07-20T16:57:24;1.05;;;0.57;;
14858;SDS011;7521;51.700;6.874;2023-07-20T17:00:29;2.07;;;0.70;;
14858;SDS011;7521;51.700;6.874;2023-07-20T17:03:34;1.10;;;0.77;;
14858;SDS011;7521;51.700;6.874;2023-07-20T17:06:40;2.00;;;0.80;;
14858;SDS011;7521;51.700;6.874;2023-07-20T17:09:45;0.80;;;0.70;;
14858;SDS011;7521;51.700;6.874;2023-07-20T17:12:51;1.87;;;0.70;;
14858;SDS011;7521;51.700;6.874;2023-07-20T17:15:56;1.37;;;0.70;;
14858;SDS011;7521;51.700;6.874;2023-07-20T17:19:01;2.50;;;0.60;;
14858;SDS011;7521;51.700;6.874;2023-07-20T17:22:07;0.77;;;0.70;;
14858;SDS011;7521;51.700;6.874;2023-07-20T17:25:13;2.97;;;0.77;;
14858;SDS011;7521;51.700;6.874;2023-07-20T17:28:18;1.50;;;0.73;;
14858;SDS011;7521;51.700;6.874;2023-07-20T17:31:23;2.05;;;1.00;;
14858;SDS011;7521;51.700;6.874;2023-07-20T17:34:33;1.30;;;0.67;;
14858;SDS011;7521;51.700;6.874;2023-07-20T17:37:39;1.77;;;1.00;;
14858;SDS011;7521;51.700;6.874;2023-07-20T17:40:44;2.07;;;0.60;;
14858;SDS011;7521;51.700;6.874;2023-07-20T17:43:49;1.13;;;0.73;;
14858;SDS011;7521;51.700;6.874;2023-07-20T17:46:55;1.10;;;0.60;;
14858;SDS011;7521;51.700;6.874;2023-07-20T17:50:00;2.90;;;0.80;;
14858;SDS011;7521;51.700;6.874;2023-07-20T17:53:05;1.60;;;0.68;;
14858;SDS011;7521;51.700;6.874;2023-07-20T17:56:10;3.60;;;0.70;;
14858;SDS011;7521;51.700;6.874;2023-07-20T17:59:15;1.50;;;0.70;;
14858;SDS011;7521;51.700;6.874;2023-07-20T18:02:21;1.58;;;0.80;;
14858;SDS011;7521;51.700;6.874;2023-07-20T18:05:30;1.97;;;0.90;;
14858;SDS011;7521;51.700;6.874;2023-07-20T18:08:36;1.97;;;1.13;;
14858;SDS011;7521;51.700;6.874;2023-07-20T18:11:42;2.10;;;1.03;;
14858;SDS011;7521;51.700;6.874;2023-07-20T18:14:47;1.50;;;0.80;;
14858;SDS011;7521;51.700;6.874;2023-07-20T18:17:52;1.00;;;0.80;;
14858;SDS011;7521;51.700;6.874;2023-07-20T18:20:58;1.65;;;0.70;;
14858;SDS011;7521;51.700;6.874;2023-07-20T18:24:03;1.98;;;0.82;;
14858;SDS011;7521;51.700;6.874;2023-07-20T18:27:08;1.08;;;0.82;;
14858;SDS011;7521;51.700;6.874;2023-07-20T18:30:13;2.22;;;0.93;;
14858;SDS011;7521;51.700;6.874;2023-07-20T18:33:23;1.50;;;1.20;;
14858;SDS011;7521;51.700;6.874;2023-07-20T18:36:28;1.80;;;1.10;;
14858;SDS011;7521;51.700;6.874;2023-07-20T18:39:33;1.60;;;0.95;;
14858;SDS011;7521;51.700;6.874;2023-07-20T18:42:38;2.15;;;0.68;;
14858;SDS011;7521;51.700;6.874;2023-07-20T18:45:45;1.20;;;0.87;;
14858;SDS011;7521;51.700;6.874;2023-07-20T18:48:51;1.00;;;0.80;;
14858;SDS011;7521;51.700;6.874;2023-07-20T18:51:56;1.53;;;1.00;;
14858;SDS011;7521;51.700;6.874;2023-07-20T18:55:02;0.80;;;0.70;;
14858;SDS011;7521;51.700;6.874;2023-07-20T18:58:07;1.27;;;0.90;;
14858;SDS011;7521;51.700;6.874;2023-07-20T19:01:12;1.05;;;0.70;;
14858;SDS011;7521;51.700;6.874;2023-07-20T19:04:17;1.10;;;0.80;;
14858;SDS011;7521;51.700;6.874;2023-07-20T19:07:23;2.33;;;0.90;;
14858;SDS011;7521;51.700;6.874;2023-07-20T19:10:28;1.13;;;0.80;;
14858;SDS011;7521;51.700;6.874;2023-07-20T19:13:34;1.27;;;1.07;;